createdAt,value
2023-03-21T00:00:03.069Z,99.99
2023-03-21T00:01:04.122Z,99.99
2023-03-21T00:02:04.176Z,99.99
2023-03-21T00:03:04.622Z,99.99
2023-03-21T00:04:04.887Z,99.99
2023-03-21T00:05:20.460Z,99.99
2023-03-21T00:06:06.217Z,99.99
2023-03-21T00:07:06.846Z,99.99
2023-03-21T00:08:08.211Z,99.99
2023-03-21T00:09:07.914Z,99.99
2023-03-21T00:10:29.917Z,99.99
2023-03-21T00:11:08.916Z,99.99
2023-03-21T00:12:09.116Z,99.99
2023-03-21T00:13:09.330Z,99.99
2023-03-21T00:14:09.835Z,99.99
2023-03-21T00:15:10.783Z,99.99
2023-03-21T00:16:28.321Z,99.99
2023-03-21T00:17:12.311Z,99.99
2023-03-21T00:18:12.282Z,99.99
2023-03-21T00:19:12.666Z,99.99
2023-03-21T00:20:13.604Z,99.99
2023-03-21T00:21:59.434Z,99.99
2023-03-21T00:22:25.026Z,99.99
2023-03-21T00:23:25.518Z,99.99
2023-03-21T00:24:26.220Z,99.99
2023-03-21T00:25:27.148Z,99.99
2023-03-21T00:26:27.900Z,99.99
2023-03-21T00:28:05.445Z,99.99
2023-03-21T00:28:56.435Z,99.99
2023-03-21T00:29:56.994Z,99.99
2023-03-21T00:30:57.920Z,99.99
2023-03-21T00:31:58.153Z,99.99
2023-03-21T00:33:08.898Z,99.99
2023-03-21T00:33:59.009Z,99.99
2023-03-21T00:35:53.325Z,99.99
2023-03-21T00:36:20.796Z,99.99
2023-03-21T00:37:20.930Z,99.99
2023-03-21T00:38:21.874Z,99.99
2023-03-21T00:39:22.896Z,99.99
2023-03-21T00:40:37.749Z,99.99
2023-03-21T00:41:44.273Z,99.99
2023-03-21T00:42:24.620Z,99.99
2023-03-21T00:43:24.842Z,99.99
2023-03-21T00:44:25.503Z,99.99
2023-03-21T00:45:25.720Z,99.99
2023-03-21T00:46:36.303Z,99.99
2023-03-21T00:47:26.554Z,99.99
2023-03-21T00:48:27.552Z,99.99
2023-03-21T00:49:27.908Z,99.99
2023-03-21T00:50:28.924Z,99.99
2023-03-21T00:51:29.175Z,99.99
2023-03-21T00:52:45.420Z,99.99
2023-03-21T00:53:30.374Z,99.99
2023-03-21T00:54:31.606Z,99.99
2023-03-21T00:55:31.509Z,99.99
2023-03-21T00:56:32.413Z,99.99
2023-03-21T00:57:45.371Z,99.99
2023-03-21T00:58:33.229Z,99.99
2023-03-21T00:59:33.567Z,99.99
2023-03-21T01:00:34.694Z,99.99
2023-03-21T01:01:35.641Z,99.99
2023-03-21T01:02:36.535Z,99.99
2023-03-21T01:03:37.027Z,99.99
2023-03-21T01:04:36.969Z,99.99
2023-03-21T01:05:38.137Z,99.99
2023-03-21T01:06:38.408Z,99.99
2023-03-21T01:07:39.104Z,99.99
2023-03-21T01:08:54.096Z,99.99
2023-03-21T01:09:41.869Z,99.99
2023-03-21T01:10:42.097Z,99.99
2023-03-21T01:11:42.357Z,99.99
2023-03-21T01:12:43.289Z,99.99
2023-03-21T01:14:04.512Z,99.99
2023-03-21T01:14:44.196Z,99.99
2023-03-21T01:15:44.717Z,99.99
2023-03-21T01:16:45.067Z,99.99
2023-03-21T01:17:45.582Z,99.99
2023-03-21T01:18:45.871Z,99.99
2023-03-21T01:19:57.734Z,99.99
2023-03-21T01:20:57.650Z,99.99
2023-03-21T01:21:58.871Z,99.99
2023-03-21T01:22:59.828Z,99.99
2023-03-21T01:24:00.449Z,99.99
2023-03-21T01:25:22.136Z,99.99
2023-03-21T01:26:02.123Z,99.99
2023-03-21T01:27:02.791Z,99.99
2023-03-21T01:28:03.055Z,99.99
2023-03-21T01:29:03.878Z,99.99
2023-03-21T01:30:11.193Z,99.99
2023-03-21T01:31:04.810Z,99.99
2023-03-21T01:32:05.799Z,99.99
2023-03-21T01:33:06.867Z,99.99
2023-03-21T01:34:06.879Z,99.99
2023-03-21T01:35:08.106Z,99.99
2023-03-21T01:36:21.149Z,99.99
2023-03-21T01:37:09.616Z,99.99
2023-03-21T01:38:09.602Z,99.99
2023-03-21T01:39:10.239Z,99.99
2023-03-21T01:40:11.544Z,99.99
2023-03-21T01:41:26.249Z,99.99
2023-03-21T01:42:12.802Z,99.99
2023-03-21T01:43:13.449Z,99.99
2023-03-21T01:44:13.377Z,99.99
2023-03-21T01:45:14.626Z,99.99
2023-03-21T01:46:15.009Z,99.99
2023-03-21T01:47:17.787Z,99.99
2023-03-21T01:48:16.232Z,99.99
2023-03-21T01:49:16.610Z,99.99
2023-03-21T01:50:16.975Z,99.99
2023-03-21T01:51:17.465Z,99.99
2023-03-21T01:52:36.286Z,99.99
2023-03-21T01:53:18.119Z,99.99
2023-03-21T01:54:18.996Z,99.99
2023-03-21T01:55:19.242Z,99.99
2023-03-21T01:56:19.456Z,99.99
2023-03-21T01:57:20.104Z,99.99
2023-03-21T01:58:20.432Z,99.99
2023-03-21T01:59:21.350Z,99.99
2023-03-21T02:00:22.080Z,99.99
2023-03-21T02:01:22.945Z,99.99
2023-03-21T02:02:23.086Z,99.99
2023-03-21T02:03:38.936Z,99.99
2023-03-21T02:04:24.049Z,99.99
2023-03-21T02:05:24.479Z,99.99
2023-03-21T02:06:24.715Z,99.99
2023-03-21T02:07:24.634Z,99.99
2023-03-21T02:08:38.241Z,99.99
2023-03-21T02:09:25.534Z,99.99
2023-03-21T02:10:26.003Z,99.99
2023-03-21T02:11:26.642Z,99.99
2023-03-21T02:12:27.147Z,99.99
2023-03-21T02:13:28.074Z,99.99
2023-03-21T02:14:34.755Z,99.99
2023-03-21T02:15:28.966Z,99.99
2023-03-21T02:16:29.776Z,99.99
2023-03-21T02:17:30.261Z,99.99
2023-03-21T02:18:30.500Z,99.99
2023-03-21T02:19:47.717Z,99.99
2023-03-21T02:20:41.655Z,99.99
2023-03-21T02:21:42.583Z,99.99
2023-03-21T02:22:43.073Z,99.99
2023-03-21T02:23:42.983Z,99.99
2023-03-21T02:24:46.496Z,99.99
2023-03-21T02:25:44.541Z,99.99
2023-03-21T02:26:52.431Z,99.99
2023-03-21T02:27:44.709Z,99.99
2023-03-21T02:28:45.205Z,99.99
2023-03-21T02:29:46.118Z,99.99
2023-03-21T02:30:57.514Z,99.99
2023-03-21T02:31:46.746Z,99.99
2023-03-21T02:32:46.908Z,99.99
2023-03-21T02:33:47.432Z,99.99
2023-03-21T02:34:48.392Z,99.99
2023-03-21T02:36:00.724Z,99.99
2023-03-21T02:36:50.087Z,99.99
2023-03-21T02:38:00.484Z,99.99
2023-03-21T02:38:50.672Z,99.99
2023-03-21T02:39:50.907Z,99.99
2023-03-21T02:40:51.206Z,99.99
2023-03-21T02:41:51.918Z,99.99
2023-03-21T02:43:01.389Z,99.99
2023-03-21T02:43:53.122Z,99.99
2023-03-21T02:44:53.031Z,99.99
2023-03-21T02:45:53.645Z,99.99
2023-03-21T02:47:06.562Z,99.99
2023-03-21T02:47:54.871Z,99.99
2023-03-21T02:48:56.642Z,99.99
2023-03-21T02:49:55.497Z,99.99
2023-03-21T02:50:56.472Z,99.99
2023-03-21T02:52:00.199Z,99.99
2023-03-21T02:52:56.825Z,99.99
2023-03-21T02:54:35.298Z,99.99
2023-03-21T02:55:05.085Z,99.99
2023-03-21T02:56:05.051Z,99.99
2023-03-21T02:57:05.966Z,99.99
2023-03-21T02:58:18.181Z,99.99
2023-03-21T02:59:07.407Z,99.99
2023-03-21T03:00:21.029Z,99.99
2023-03-21T03:01:08.759Z,99.99
2023-03-21T03:02:08.928Z,99.99
2023-03-21T03:03:24.911Z,99.99
2023-03-21T03:04:10.044Z,99.99
2023-03-21T03:05:23.242Z,99.99
2023-03-21T03:06:11.184Z,99.99
2023-03-21T03:07:12.119Z,99.99
2023-03-21T03:08:13.112Z,99.99
2023-03-21T03:09:14.342Z,99.99
2023-03-21T03:10:14.243Z,99.99
2023-03-21T03:11:15.312Z,99.99
2023-03-21T03:12:16.271Z,99.99
2023-03-21T03:13:16.500Z,99.99
2023-03-21T03:14:56.314Z,99.99
2023-03-21T03:15:20.122Z,99.99
2023-03-21T03:16:20.408Z,99.99
2023-03-21T03:17:20.324Z,99.99
2023-03-21T03:18:21.684Z,99.99
2023-03-21T03:19:22.655Z,99.99
2023-03-21T03:20:23.372Z,99.99
2023-03-21T03:21:24.552Z,99.99
2023-03-21T03:22:25.503Z,99.99
2023-03-21T03:23:26.444Z,99.99
2023-03-21T03:24:26.421Z,99.99
2023-03-21T03:25:43.109Z,99.99
2023-03-21T03:26:27.681Z,99.99
2023-03-21T03:27:28.333Z,99.99
2023-03-21T03:28:28.823Z,99.99
2023-03-21T03:29:29.023Z,99.99
2023-03-21T03:30:43.323Z,99.99
2023-03-21T03:31:56.019Z,99.99
2023-03-21T03:32:55.859Z,99.99
2023-03-21T03:33:56.948Z,99.99
2023-03-21T03:34:57.874Z,99.99
2023-03-21T03:36:12.766Z,99.99
2023-03-21T03:36:58.652Z,99.99
2023-03-21T03:37:58.906Z,99.99
2023-03-21T03:38:59.165Z,99.99
2023-03-21T03:39:59.443Z,99.99
2023-03-21T03:40:59.651Z,99.99
2023-03-21T03:42:34.128Z,99.99
2023-03-21T03:43:28.642Z,99.99
2023-03-21T03:44:28.877Z,99.99
2023-03-21T03:45:29.801Z,99.99
2023-03-21T03:46:30.851Z,99.99
2023-03-21T03:47:47.651Z,99.99
2023-03-21T03:48:32.409Z,99.99
2023-03-21T03:49:32.349Z,99.99
2023-03-21T03:50:33.399Z,99.99
2023-03-21T03:51:33.583Z,99.99
2023-03-21T03:52:34.394Z,99.99
2023-03-21T03:53:34.906Z,99.99
2023-03-21T03:54:35.422Z,99.99
2023-03-21T03:55:35.381Z,99.99
2023-03-21T03:56:35.583Z,99.99
2023-03-21T03:57:36.519Z,99.99
2023-03-21T03:58:50.078Z,99.99
2023-03-21T03:59:38.073Z,99.99
2023-03-21T04:00:38.765Z,99.99
2023-03-21T04:01:39.298Z,99.99
2023-03-21T04:02:39.974Z,99.99
2023-03-21T04:04:03.677Z,99.99
2023-03-21T04:04:41.176Z,99.99
2023-03-21T04:05:41.756Z,99.99
2023-03-21T04:06:42.238Z,99.99
2023-03-21T04:07:42.521Z,99.99
2023-03-21T04:08:43.446Z,99.99
2023-03-21T04:09:50.042Z,99.99
2023-03-21T04:10:45.291Z,99.99
2023-03-21T04:11:45.980Z,99.99
2023-03-21T04:12:47.320Z,99.99
2023-03-21T04:13:48.243Z,99.99
2023-03-21T04:14:53.267Z,99.99
2023-03-21T04:15:49.301Z,99.99
2023-03-21T04:16:50.392Z,99.99
2023-03-21T04:17:50.674Z,99.99
2023-03-21T04:18:51.634Z,99.99
2023-03-21T04:19:53.784Z,99.99
2023-03-21T04:20:53.108Z,99.99
2023-03-21T04:21:53.319Z,99.99
2023-03-21T04:22:53.443Z,99.99
2023-03-21T04:23:53.697Z,99.99
2023-03-21T04:24:54.952Z,99.99
2023-03-21T04:26:01.901Z,99.99
2023-03-21T04:26:55.903Z,99.99
2023-03-21T04:27:56.829Z,99.99
2023-03-21T04:28:57.345Z,99.99
2023-03-21T04:29:57.845Z,99.99
2023-03-21T04:31:22.561Z,99.99
2023-03-21T04:31:59.344Z,99.99
2023-03-21T04:32:59.316Z,99.99
2023-03-21T04:33:59.829Z,99.99
2023-03-21T04:35:00.048Z,99.99
2023-03-21T04:36:00.609Z,99.99
2023-03-21T04:37:01.342Z,99.99
2023-03-21T04:38:02.000Z,99.99
2023-03-21T04:39:02.508Z,99.99
2023-03-21T04:40:03.223Z,99.99
2023-03-21T04:41:03.981Z,99.99
2023-03-21T04:42:04.476Z,99.99
2023-03-21T04:43:04.780Z,99.99
2023-03-21T04:44:05.473Z,99.99
2023-03-21T04:45:05.438Z,99.99
2023-03-21T04:46:06.634Z,99.99
2023-03-21T04:47:07.784Z,99.99
2023-03-21T04:48:08.432Z,99.99
2023-03-21T04:49:08.686Z,99.99
2023-03-21T04:50:09.028Z,99.99
2023-03-21T04:51:09.259Z,99.99
2023-03-21T04:52:09.612Z,99.99
2023-03-21T04:53:09.717Z,99.99
2023-03-21T04:54:10.631Z,99.99
2023-03-21T04:55:11.903Z,99.99
2023-03-21T04:56:12.437Z,99.99
2023-03-21T04:57:12.365Z,99.99
2023-03-21T04:58:13.048Z,99.99
2023-03-21T04:59:13.722Z,99.99
2023-03-21T05:00:14.661Z,99.99
2023-03-21T05:01:14.791Z,99.99
2023-03-21T05:02:15.108Z,99.99
2023-03-21T05:03:15.794Z,99.99
2023-03-21T05:04:16.173Z,99.99
2023-03-21T05:05:16.488Z,99.99
2023-03-21T05:06:17.188Z,99.99
2023-03-21T05:07:17.407Z,99.99
2023-03-21T05:08:17.675Z,99.99
2023-03-21T05:09:17.883Z,99.99
2023-03-21T05:10:18.122Z,99.99
2023-03-21T05:11:18.083Z,99.99
2023-03-21T05:12:19.305Z,99.99
2023-03-21T05:13:19.629Z,99.99
2023-03-21T05:14:20.267Z,99.99
2023-03-21T05:15:21.484Z,99.99
2023-03-21T05:16:22.219Z,99.99
2023-03-21T05:17:22.825Z,99.99
2023-03-21T05:18:23.579Z,99.99
2023-03-21T05:19:24.236Z,99.99
2023-03-21T05:20:25.030Z,99.99
2023-03-21T05:21:26.272Z,99.99
2023-03-21T05:22:26.472Z,99.99
2023-03-21T05:23:27.495Z,99.99
2023-03-21T05:24:27.691Z,99.99
2023-03-21T05:25:27.933Z,99.99
2023-03-21T05:26:28.883Z,99.99
2023-03-21T05:27:29.116Z,99.99
2023-03-21T05:28:29.612Z,99.99
2023-03-21T05:29:29.830Z,99.99
2023-03-21T05:30:30.336Z,99.99
2023-03-21T05:31:30.771Z,99.99
2023-03-21T05:32:31.402Z,99.99
2023-03-21T05:33:31.584Z,99.99
2023-03-21T05:34:32.307Z,99.99
2023-03-21T05:35:32.982Z,99.99
2023-03-21T05:36:33.861Z,99.99
2023-03-21T05:37:34.540Z,99.99
2023-03-21T05:38:34.900Z,99.99
2023-03-21T05:39:36.108Z,99.99
2023-03-21T05:40:36.376Z,99.99
2023-03-21T05:41:36.610Z,99.99
2023-03-21T05:42:37.550Z,99.99
2023-03-21T05:43:37.843Z,99.99
2023-03-21T05:44:38.473Z,99.99
2023-03-21T05:45:39.240Z,99.99
2023-03-21T05:46:38.952Z,99.99
2023-03-21T05:47:39.974Z,99.99
2023-03-21T05:48:40.895Z,99.99
2023-03-21T05:49:41.287Z,99.99
2023-03-21T05:50:42.516Z,99.99
2023-03-21T05:51:43.472Z,99.99
2023-03-21T05:52:43.812Z,99.99
2023-03-21T05:53:44.440Z,99.99
2023-03-21T05:54:44.921Z,99.99
2023-03-21T05:55:46.111Z,99.99
2023-03-21T05:56:46.446Z,99.99
2023-03-21T05:57:47.140Z,99.99
2023-03-21T05:58:48.351Z,99.99
2023-03-21T05:59:49.275Z,99.99
2023-03-21T06:00:49.496Z,99.99
2023-03-21T06:01:49.983Z,99.99
2023-03-21T06:02:50.293Z,99.99
2023-03-21T06:03:51.152Z,99.99
2023-03-21T06:04:51.659Z,99.99
2023-03-21T06:05:52.157Z,99.99
2023-03-21T06:06:52.435Z,99.99
2023-03-21T06:07:52.710Z,99.99
2023-03-21T06:08:52.981Z,99.99
2023-03-21T06:09:53.473Z,99.99
2023-03-21T06:10:53.694Z,99.99
2023-03-21T06:11:54.226Z,99.99
2023-03-21T06:12:54.425Z,99.99
2023-03-21T06:13:54.758Z,99.99
2023-03-21T06:14:55.958Z,99.99
2023-03-21T06:15:56.270Z,99.99
2023-03-21T06:16:57.592Z,99.99
2023-03-21T06:17:57.832Z,99.99
2023-03-21T06:18:58.793Z,99.99
2023-03-21T06:19:59.455Z,99.99
2023-03-21T06:20:59.716Z,99.99
2023-03-21T06:22:00.401Z,99.99
2023-03-21T06:23:00.634Z,99.99
2023-03-21T06:24:01.480Z,99.99
2023-03-21T06:25:02.689Z,99.99
2023-03-21T06:26:02.935Z,99.99
2023-03-21T06:27:04.112Z,99.99
2023-03-21T06:28:03.778Z,99.99
2023-03-21T06:29:04.298Z,99.99
2023-03-21T06:30:04.527Z,99.99
2023-03-21T06:31:04.560Z,99.99
2023-03-21T06:32:05.396Z,99.99
2023-03-21T06:33:05.611Z,99.99
2023-03-21T06:34:06.714Z,99.99
2023-03-21T06:35:06.972Z,99.99
2023-03-21T06:36:08.018Z,99.99
2023-03-21T06:37:09.006Z,99.99
2023-03-21T06:38:09.702Z,99.99
2023-03-21T06:39:10.592Z,99.99
2023-03-21T06:40:10.843Z,99.99
2023-03-21T06:41:11.367Z,99.99
2023-03-21T06:42:11.923Z,99.99
2023-03-21T06:43:12.860Z,99.99
2023-03-21T06:44:13.928Z,99.99
2023-03-21T06:45:14.588Z,99.99
2023-03-21T06:46:14.873Z,99.99
2023-03-21T06:47:15.630Z,99.99
2023-03-21T06:48:15.952Z,99.99
2023-03-21T06:49:16.019Z,99.99
2023-03-21T06:50:16.240Z,99.99
2023-03-21T06:51:16.446Z,99.99
2023-03-21T06:52:17.672Z,99.99
2023-03-21T06:53:18.172Z,99.99
2023-03-21T06:54:19.044Z,99.99
2023-03-21T06:55:20.305Z,99.99
2023-03-21T06:56:20.952Z,99.99
2023-03-21T06:57:22.239Z,99.99
2023-03-21T06:58:22.509Z,99.99
2023-03-21T06:59:22.462Z,99.99
2023-03-21T07:00:23.717Z,99.99
2023-03-21T07:01:24.862Z,99.99
2023-03-21T07:02:25.208Z,99.99
2023-03-21T07:03:26.230Z,99.99
2023-03-21T07:04:27.113Z,99.99
2023-03-21T07:05:27.795Z,99.99
2023-03-21T07:06:27.912Z,99.99
2023-03-21T07:07:29.118Z,99.99
2023-03-21T07:08:30.079Z,99.99
2023-03-21T07:09:30.470Z,99.99
2023-03-21T07:10:31.380Z,99.99
2023-03-21T07:11:32.477Z,99.99
2023-03-21T07:12:33.724Z,99.99
2023-03-21T07:13:34.365Z,99.99
2023-03-21T07:14:35.692Z,99.99
2023-03-21T07:15:35.878Z,99.99
2023-03-21T07:16:36.515Z,99.99
2023-03-21T07:17:37.603Z,99.99
2023-03-21T07:18:38.119Z,99.99
2023-03-21T07:19:38.361Z,99.99
2023-03-21T07:20:38.980Z,99.99
2023-03-21T07:21:39.622Z,99.99
2023-03-21T07:22:39.893Z,99.99
2023-03-21T07:23:40.823Z,99.99
2023-03-21T07:24:41.292Z,99.99
2023-03-21T07:25:42.712Z,99.99
2023-03-21T07:26:42.821Z,99.99
2023-03-21T07:27:45.929Z,99.99
2023-03-21T07:28:43.866Z,99.99
2023-03-21T07:29:44.542Z,99.99
2023-03-21T07:30:45.771Z,99.99
2023-03-21T07:31:46.792Z,99.99
2023-03-21T07:32:47.709Z,99.99
2023-03-21T07:33:47.657Z,99.99
2023-03-21T07:34:48.721Z,99.99
2023-03-21T07:35:49.922Z,99.99
2023-03-21T07:36:50.685Z,99.99
2023-03-21T07:37:51.693Z,99.99
2023-03-21T07:38:52.015Z,99.99
2023-03-21T07:39:52.602Z,99.99
2023-03-21T07:40:53.100Z,99.99
2023-03-21T07:41:53.354Z,99.99
2023-03-21T07:42:53.901Z,99.99
2023-03-21T07:43:54.275Z,99.99
2023-03-21T07:44:55.326Z,99.99
2023-03-21T07:45:55.302Z,99.99
2023-03-21T07:46:56.166Z,99.99
2023-03-21T07:47:56.484Z,99.99
2023-03-21T07:48:56.945Z,99.99
2023-03-21T07:49:57.154Z,99.99
2023-03-21T07:50:57.120Z,99.99
2023-03-21T07:51:58.054Z,99.99
2023-03-21T07:52:58.253Z,99.99
2023-03-21T07:53:58.220Z,99.99
2023-03-21T07:54:58.645Z,99.99
2023-03-21T07:55:58.568Z,99.99
2023-03-21T07:56:59.105Z,99.99
2023-03-21T07:57:59.680Z,99.99
2023-03-21T07:58:59.958Z,99.99
2023-03-21T08:00:00.192Z,99.99
2023-03-21T08:01:01.121Z,99.99
2023-03-21T08:02:01.431Z,99.99
2023-03-21T08:03:04.140Z,99.99
2023-03-21T08:04:02.055Z,99.99
2023-03-21T08:05:03.086Z,99.99
2023-03-21T08:06:03.612Z,99.99
2023-03-21T08:07:03.831Z,99.99
2023-03-21T08:08:04.797Z,99.99
2023-03-21T08:09:05.063Z,99.99
2023-03-21T08:10:05.504Z,99.99
2023-03-21T08:11:06.439Z,99.99
2023-03-21T08:12:06.899Z,99.99
2023-03-21T08:13:07.458Z,99.99
2023-03-21T08:14:08.003Z,99.99
2023-03-21T08:15:08.370Z,99.99
2023-03-21T08:16:08.933Z,99.99
2023-03-21T08:17:09.407Z,99.99
2023-03-21T08:18:09.825Z,99.99
2023-03-21T08:19:10.921Z,99.99
2023-03-21T08:20:11.155Z,99.99
2023-03-21T08:21:12.804Z,99.99
2023-03-21T08:22:12.345Z,99.99
2023-03-21T08:23:13.342Z,99.99
2023-03-21T08:24:13.902Z,99.99
2023-03-21T08:25:13.957Z,99.99
2023-03-21T08:26:15.197Z,99.99
2023-03-21T08:27:15.165Z,99.99
2023-03-21T08:28:16.478Z,99.99
2023-03-21T08:29:16.695Z,99.99
2023-03-21T08:30:17.198Z,99.99
2023-03-21T08:31:18.012Z,99.99
2023-03-21T08:32:18.436Z,99.99
2023-03-21T08:33:18.808Z,99.99
2023-03-21T08:34:18.944Z,99.99
2023-03-21T08:35:19.347Z,99.99
2023-03-21T08:36:19.983Z,99.99
2023-03-21T08:37:20.031Z,99.99
2023-03-21T08:38:21.292Z,99.99
2023-03-21T08:39:22.061Z,99.99
2023-03-21T08:40:22.247Z,99.99
2023-03-21T08:41:22.513Z,99.99
2023-03-21T08:42:23.043Z,99.99
2023-03-21T08:43:23.339Z,99.99
2023-03-21T08:44:23.551Z,99.99
2023-03-21T08:45:23.675Z,99.99
2023-03-21T08:46:24.397Z,99.99
2023-03-21T08:47:24.768Z,99.99
2023-03-21T08:48:25.458Z,99.99
2023-03-21T08:49:25.918Z,99.99
2023-03-21T08:50:26.595Z,99.99
2023-03-21T08:51:27.236Z,99.99
2023-03-21T08:52:27.740Z,99.99
2023-03-21T08:53:27.984Z,99.99
2023-03-21T08:54:28.494Z,99.99
2023-03-21T08:55:28.572Z,99.99
2023-03-21T08:56:29.102Z,99.99
2023-03-21T08:57:30.022Z,99.99
2023-03-21T08:58:30.303Z,99.99
2023-03-21T08:59:31.119Z,99.99
2023-03-21T09:00:32.054Z,99.99
2023-03-21T09:01:33.104Z,99.99
2023-03-21T09:02:34.311Z,99.99
2023-03-21T09:03:34.584Z,99.99
2023-03-21T09:04:34.985Z,99.99
2023-03-21T09:05:35.704Z,99.99
2023-03-21T09:06:36.357Z,99.99
2023-03-21T09:07:37.017Z,99.99
2023-03-21T09:08:37.571Z,99.99
2023-03-21T09:09:37.892Z,99.99
2023-03-21T09:10:38.248Z,99.32
2023-03-21T09:11:39.465Z,99.23
2023-03-21T09:12:39.639Z,98.94
2023-03-21T09:13:40.209Z,98.42
2023-03-21T09:14:40.458Z,98.47
2023-03-21T09:15:41.040Z,97.66
2023-03-21T09:16:41.313Z,97.89
2023-03-21T09:17:41.522Z,97.42
2023-03-21T09:18:42.472Z,98.37
2023-03-21T09:19:42.697Z,98.27
2023-03-21T09:20:43.048Z,97.99
2023-03-21T09:21:43.391Z,97.99
2023-03-21T09:22:47.451Z,97.99
2023-03-21T09:23:44.588Z,97.85
2023-03-21T09:24:45.183Z,97.94
2023-03-21T09:25:46.176Z,97.47
2023-03-21T09:26:45.715Z,98.23
2023-03-21T09:27:46.348Z,97.56
2023-03-21T09:28:46.913Z,97.56
2023-03-21T09:29:47.143Z,96.7
2023-03-21T09:30:47.133Z,95.27
2023-03-21T09:31:47.998Z,94.79
2023-03-21T09:32:48.452Z,93.65
2023-03-21T09:33:48.729Z,93.55
2023-03-21T09:34:49.206Z,92.6
2023-03-21T09:35:51.794Z,91.93
2023-03-21T09:36:49.918Z,92.02
2023-03-21T09:37:50.427Z,92.6
2023-03-21T09:38:50.919Z,93.55
2023-03-21T09:39:51.190Z,93.17
2023-03-21T09:40:52.462Z,92.31
2023-03-21T09:41:53.117Z,92.12
2023-03-21T09:42:53.404Z,91.83
2023-03-21T09:43:53.680Z,91.83
2023-03-21T09:44:53.610Z,92.31
2023-03-21T09:45:54.201Z,92.12
2023-03-21T09:46:55.327Z,92.41
2023-03-21T09:47:55.586Z,92.79
2023-03-21T09:49:02.737Z,93.55
2023-03-21T09:50:04.496Z,94.12
2023-03-21T09:50:57.276Z,93.26
2023-03-21T09:51:58.101Z,93.55
2023-03-21T09:52:59.098Z,92.6
2023-03-21T09:54:02.033Z,92.12
2023-03-21T09:54:59.274Z,92.31
2023-03-21T09:56:00.033Z,91.55
2023-03-21T09:56:59.966Z,92.41
2023-03-21T09:58:00.241Z,93.17
2023-03-21T09:59:00.855Z,91.64
2023-03-21T10:00:01.287Z,91.74
2023-03-21T10:01:01.887Z,92.31
2023-03-21T10:02:02.592Z,92.31
2023-03-21T10:03:03.122Z,92.88
2023-03-21T10:04:03.679Z,92.69
2023-03-21T10:05:03.643Z,91.64
2023-03-21T10:06:04.529Z,91.11
2023-03-21T10:07:05.325Z,90.06
2023-03-21T10:08:06.757Z,90.06
2023-03-21T10:09:07.299Z,90.11
2023-03-21T10:10:07.337Z,90.54
2023-03-21T10:11:07.598Z,90.45
2023-03-21T10:12:08.260Z,89.59
2023-03-21T10:13:08.782Z,89.68
2023-03-21T10:14:09.076Z,90.25
2023-03-21T10:15:09.580Z,91.88
2023-03-21T10:16:10.541Z,91.59
2023-03-21T10:17:10.814Z,91.69
2023-03-21T10:18:12.031Z,91.59
2023-03-21T10:19:12.285Z,91.02
2023-03-21T10:20:12.370Z,90.45
2023-03-21T10:21:14.998Z,90.2
2023-03-21T10:22:12.058Z,91.02
2023-03-21T10:23:12.329Z,90.49
2023-03-21T10:24:12.755Z,89.34
2023-03-21T10:25:12.936Z,88.77
2023-03-21T10:26:16.761Z,89.25
2023-03-21T10:27:14.446Z,88.87
2023-03-21T10:28:15.176Z,88.58
2023-03-21T10:29:16.606Z,86.86
2023-03-21T10:30:17.081Z,85.14
2023-03-21T10:31:17.459Z,85.05
2023-03-21T10:32:17.570Z,85.62
2023-03-21T10:33:18.312Z,85.96
2023-03-21T10:34:19.057Z,86.76
2023-03-21T10:35:20.074Z,87.34
2023-03-21T10:36:21.205Z,86.86
2023-03-21T10:37:21.996Z,86.29
2023-03-21T10:38:21.955Z,86.29
2023-03-21T10:39:23.234Z,86.96
2023-03-21T10:40:23.176Z,86.67
2023-03-21T10:41:23.847Z,87.53
2023-03-21T10:42:24.081Z,87.43
2023-03-21T10:43:24.331Z,87.53
2023-03-21T10:44:24.861Z,86.29
2023-03-21T10:45:24.858Z,86.29
2023-03-21T10:46:26.341Z,87.24
2023-03-21T10:47:26.657Z,87.43
2023-03-21T10:48:26.801Z,88.1
2023-03-21T10:49:27.349Z,88.1
2023-03-21T10:50:27.866Z,87.91
2023-03-21T10:51:28.851Z,89.25
2023-03-21T10:52:29.791Z,87.95
2023-03-21T10:53:30.627Z,86.9
2023-03-21T10:54:30.911Z,86.43
2023-03-21T10:55:31.589Z,87.57
2023-03-21T10:56:32.423Z,87.48
2023-03-21T10:57:32.953Z,86.8
2023-03-21T10:58:33.570Z,86.71
2023-03-21T10:59:33.882Z,86.14
2023-03-21T11:00:34.810Z,86.8
2023-03-21T11:01:36.428Z,86.33
2023-03-21T11:02:36.315Z,86.14
2023-03-21T11:03:37.049Z,86.71
2023-03-21T11:04:37.546Z,86.33
2023-03-21T11:05:38.204Z,86.14
2023-03-21T11:06:38.479Z,88.81
2023-03-21T11:07:39.411Z,88.43
2023-03-21T11:08:39.961Z,86.04
2023-03-21T11:09:40.509Z,85.38
2023-03-21T11:10:40.463Z,85.57
2023-03-21T11:11:41.022Z,85.28
2023-03-21T11:12:41.160Z,84.89
2023-03-21T11:13:41.261Z,85.47
2023-03-21T11:14:41.889Z,86.47
2023-03-21T11:15:43.428Z,86.66
2023-03-21T11:16:45.641Z,86.28
2023-03-21T11:17:44.113Z,86.28
2023-03-21T11:18:44.376Z,85.41
2023-03-21T11:19:44.831Z,84.94
2023-03-21T11:20:45.076Z,82.64
2023-03-21T11:21:45.293Z,83.12
2023-03-21T11:22:45.955Z,82.74
2023-03-21T11:23:47.191Z,83.22
2023-03-21T11:24:48.170Z,83.12
2023-03-21T11:25:49.091Z,83.79
2023-03-21T11:26:49.145Z,84.94
2023-03-21T11:27:50.121Z,84.36
2023-03-21T11:28:50.672Z,83.12
2023-03-21T11:29:50.997Z,83.03
2023-03-21T11:30:51.696Z,83.03
2023-03-21T11:31:52.191Z,82.54
2023-03-21T11:32:52.846Z,82.64
2023-03-21T11:33:53.382Z,83.03
2023-03-21T11:34:53.628Z,82.74
2023-03-21T11:35:54.676Z,82.17
2023-03-21T11:36:55.087Z,82.45
2023-03-21T11:37:55.329Z,82.6
2023-03-21T11:38:56.315Z,83.79
2023-03-21T11:39:56.551Z,84.61
2023-03-21T11:40:57.520Z,84.89
2023-03-21T11:41:57.812Z,84.03
2023-03-21T11:42:57.744Z,84.8
2023-03-21T11:43:58.601Z,84.61
2023-03-21T11:44:59.086Z,84.42
2023-03-21T11:46:00.148Z,85.38
2023-03-21T11:47:00.529Z,86.85
2023-03-21T11:48:01.196Z,88.48
2023-03-21T11:49:01.959Z,89.34
2023-03-21T11:50:10.479Z,88.29
2023-03-21T11:51:02.732Z,87.62
2023-03-21T11:52:03.363Z,86.57
2023-03-21T11:53:03.579Z,86.76
2023-03-21T11:54:03.502Z,87.04
2023-03-21T11:55:04.051Z,87.23
2023-03-21T11:56:05.007Z,88.48
2023-03-21T11:57:05.500Z,87.43
2023-03-21T11:58:19.432Z,85.99
2023-03-21T11:59:07.132Z,85.8
2023-03-21T12:00:07.846Z,84.41
2023-03-21T12:01:08.753Z,84.36
2023-03-21T12:02:09.008Z,84.65
2023-03-21T12:03:09.777Z,85.03
2023-03-21T12:04:10.650Z,84.46
2023-03-21T12:05:10.789Z,83.79
2023-03-21T12:06:11.742Z,83.89
2023-03-21T12:07:11.570Z,83.6
2023-03-21T12:08:12.892Z,83.89
2023-03-21T12:09:13.113Z,83.03
2023-03-21T12:10:14.446Z,82.54
2023-03-21T12:11:15.105Z,83.03
2023-03-21T12:12:15.406Z,83.89
2023-03-21T12:13:15.855Z,82.93
2023-03-21T12:14:16.246Z,83.22
2023-03-21T12:15:16.592Z,82.74
2023-03-21T12:16:17.692Z,83.4
2023-03-21T12:17:18.385Z,83.4
2023-03-21T12:18:18.619Z,80.96
2023-03-21T12:19:19.576Z,80.35
2023-03-21T12:20:20.315Z,82.01
2023-03-21T12:21:20.586Z,82.54
2023-03-21T12:22:20.791Z,80.1
2023-03-21T12:23:21.430Z,79.62
2023-03-21T12:24:21.911Z,80.96
2023-03-21T12:25:23.163Z,80.87
2023-03-21T12:26:23.731Z,82.01
2023-03-21T12:27:24.870Z,81.44
2023-03-21T12:28:37.179Z,81.97
2023-03-21T12:29:25.830Z,82.35
2023-03-21T12:30:26.821Z,83.31
2023-03-21T12:31:27.836Z,83.31
2023-03-21T12:32:28.418Z,83.79
2023-03-21T12:33:28.671Z,84.65
2023-03-21T12:34:30.055Z,84.22
2023-03-21T12:35:30.594Z,83.93
2023-03-21T12:36:31.370Z,82.97
2023-03-21T12:37:32.183Z,82.59
2023-03-21T12:38:32.945Z,82.11
2023-03-21T12:39:33.901Z,79.72
2023-03-21T12:40:34.254Z,78.66
2023-03-21T12:41:34.910Z,77.8
2023-03-21T12:42:36.024Z,78.19
2023-03-21T12:43:36.952Z,79.05
2023-03-21T12:44:37.177Z,79.24
2023-03-21T12:45:51.839Z,80.48
2023-03-21T12:46:38.376Z,79.33
2023-03-21T12:47:38.790Z,78.66
2023-03-21T12:48:40.074Z,77.13
2023-03-21T12:49:40.449Z,76.81
2023-03-21T12:50:41.198Z,77.23
2023-03-21T12:51:41.394Z,77.9
2023-03-21T12:52:41.335Z,77.67
2023-03-21T12:53:42.558Z,79.14
2023-03-21T12:54:42.869Z,80.1
2023-03-21T12:55:43.828Z,81.05
2023-03-21T12:56:44.358Z,81.44
2023-03-21T12:57:56.994Z,80.96
2023-03-21T12:58:48.133Z,80.96
2023-03-21T12:59:45.816Z,81.2
2023-03-21T13:00:46.771Z,81.38
2023-03-21T13:01:46.533Z,80.33
2023-03-21T13:02:46.804Z,79.85